Pagrindinis puslapis
METAR-TAF:

METAR-TAF

Oro uostai :

Nadžranas, Saudo Arabija

platuma: 17-37N, ilguma: 044-25E, Aukštis: 1212 m

Dabartinis oras

Ataskaita buvo paskelbta 1 valandą ir 4 minutes, ne 10:00 UTC
Vėjas 10 kt iš Rytų/Pietryčių
Temperatūra 33°C
Drėgmė 17%
Slėgis 1019 hPa
Matomumas 10 km arba daugiau
Išsisklaidę debesys ne aukštis 3000 ft

METAR: OENG 141000Z 12010KT 9999 SCT030 33/05 Q1019 NOSIG

Laikas: 14:04 (11:04 UTC)

Prognozė

Ataskaita buvo paskelbta 12 valandos ir 4 minutes, ne 23:00 UTC
Prognozė galioja nuo 14 metu 00 UTC su 15 metu 06 UTC
Vėjas 6 kt iš Vakarų/Pietvakarių
Matomumas 10 km arba daugiau
Mažai debesys ne aukštis 3000 ft
Tapsmas
nuo 14 metu 06 UTC su 14 metu 08 UTC
Vėjas 15 kt iš Rytų
Laikinai
nuo 14 metu 12 UTC su 14 metu 16 UTC
Matomumas: 4000 m
Dulkes pustymas
Tapsmas
nuo 14 metu 18 UTC su 14 metu 20 UTC
Vėjas 3 kt nuo kintamojo kryptimis

TAF: OENG 132300Z 1400/1506 24006KT 9999 FEW030 BECMG 1406/1408 08015KT TEMPO 1412/1416 4000 BLDU BECMG 1418/1420 VRB03KT

Orai ataskaitas ir orų prognozės (METAR, TAF).

turimą stotys yra geltonos ir raudonos taškus žemėlapyje.

Perkelti pele per norėdami pamatyti stoties vardą.

Tada spustelėkite, norėdami matyti oro stebėjimo ir prognozės.

Norėdami pakeisti žemėlapį: spustelėkite ant žalios mygtukų su juodo kryžiaus žemyn,; žalią mygtuką su brūkšneliu, jei norite nutolinti; arba žalių rodyklių gretimoms žemėlapius.


METAR-TAF: